sensor_id;sensor_type;location;lat;lon;timestamp;P1;durP1;ratioP1;P2;durP2;ratioP2
24173;SDS011;12324;48.146;11.502;2022-10-10T00:01:56;19.17;;;9.30;;
24173;SDS011;12324;48.146;11.502;2022-10-10T00:04:23;18.48;;;9.52;;
24173;SDS011;12324;48.146;11.502;2022-10-10T00:06:50;19.85;;;10.75;;
24173;SDS011;12324;48.146;11.502;2022-10-10T00:09:17;23.08;;;12.10;;
24173;SDS011;12324;48.146;11.502;2022-10-10T00:11:44;21.52;;;10.10;;
24173;SDS011;12324;48.146;11.502;2022-10-10T00:14:11;17.90;;;8.48;;
24173;SDS011;12324;48.146;11.502;2022-10-10T00:16:38;23.00;;;10.13;;
24173;SDS011;12324;48.146;11.502;2022-10-10T00:19:05;26.00;;;10.10;;
24173;SDS011;12324;48.146;11.502;2022-10-10T00:21:32;29.50;;;11.52;;
24173;SDS011;12324;48.146;11.502;2022-10-10T00:23:59;19.77;;;10.65;;
24173;SDS011;12324;48.146;11.502;2022-10-10T00:26:26;22.40;;;10.30;;
24173;SDS011;12324;48.146;11.502;2022-10-10T00:28:53;23.80;;;12.77;;
24173;SDS011;12324;48.146;11.502;2022-10-10T00:31:20;24.38;;;12.43;;
24173;SDS011;12324;48.146;11.502;2022-10-10T00:33:47;22.65;;;11.82;;
24173;SDS011;12324;48.146;11.502;2022-10-10T00:36:14;28.50;;;14.18;;
24173;SDS011;12324;48.146;11.502;2022-10-10T00:38:41;25.08;;;12.35;;
24173;SDS011;12324;48.146;11.502;2022-10-10T00:41:08;29.25;;;12.75;;
24173;SDS011;12324;48.146;11.502;2022-10-10T00:43:35;23.13;;;12.02;;
24173;SDS011;12324;48.146;11.502;2022-10-10T00:46:03;23.20;;;12.73;;
24173;SDS011;12324;48.146;11.502;2022-10-10T00:50:58;26.35;;;13.93;;
24173;SDS011;12324;48.146;11.502;2022-10-10T00:56:09;27.17;;;14.07;;
24173;SDS011;12324;48.146;11.502;2022-10-10T00:58:38;24.88;;;11.80;;
24173;SDS011;12324;48.146;11.502;2022-10-10T01:01:07;26.33;;;14.57;;
24173;SDS011;12324;48.146;11.502;2022-10-10T01:03:34;29.75;;;14.10;;
24173;SDS011;12324;48.146;11.502;2022-10-10T01:06:01;29.65;;;14.18;;
24173;SDS011;12324;48.146;11.502;2022-10-10T01:08:28;27.88;;;13.00;;
24173;SDS011;12324;48.146;11.502;2022-10-10T01:13:34;24.38;;;14.27;;
24173;SDS011;12324;48.146;11.502;2022-10-10T01:16:14;27.35;;;14.80;;
24173;SDS011;12324;48.146;11.502;2022-10-10T01:19:25;24.92;;;14.68;;
24173;SDS011;12324;48.146;11.502;2022-10-10T01:21:50;27.02;;;14.35;;
24173;SDS011;12324;48.146;11.502;2022-10-10T01:24:36;22.83;;;12.77;;
24173;SDS011;12324;48.146;11.502;2022-10-10T01:30:00;23.98;;;13.95;;
24173;SDS011;12324;48.146;11.502;2022-10-10T01:32:29;28.77;;;13.60;;
24173;SDS011;12324;48.146;11.502;2022-10-10T01:35:12;23.00;;;11.93;;
24173;SDS011;12324;48.146;11.502;2022-10-10T01:37:47;26.08;;;12.40;;
24173;SDS011;12324;48.146;11.502;2022-10-10T01:40:38;21.92;;;10.80;;
24173;SDS011;12324;48.146;11.502;2022-10-10T01:43:07;21.95;;;12.35;;
24173;SDS011;12324;48.146;11.502;2022-10-10T01:45:34;21.70;;;11.73;;
24173;SDS011;12324;48.146;11.502;2022-10-10T01:48:03;18.73;;;10.82;;
24173;SDS011;12324;48.146;11.502;2022-10-10T01:50:31;22.88;;;11.95;;
24173;SDS011;12324;48.146;11.502;2022-10-10T01:53:22;23.42;;;12.23;;
24173;SDS011;12324;48.146;11.502;2022-10-10T02:01:03;24.20;;;11.63;;
24173;SDS011;12324;48.146;11.502;2022-10-10T02:03:35;23.55;;;12.82;;
24173;SDS011;12324;48.146;11.502;2022-10-10T02:08:42;21.90;;;11.00;;
24173;SDS011;12324;48.146;11.502;2022-10-10T02:11:11;26.08;;;11.95;;
24173;SDS011;12324;48.146;11.502;2022-10-10T02:13:48;20.77;;;11.63;;
24173;SDS011;12324;48.146;11.502;2022-10-10T02:16:21;21.60;;;12.38;;
24173;SDS011;12324;48.146;11.502;2022-10-10T02:18:50;21.30;;;12.33;;
24173;SDS011;12324;48.146;11.502;2022-10-10T02:21:17;20.17;;;11.88;;
24173;SDS011;12324;48.146;11.502;2022-10-10T02:23:46;21.45;;;11.60;;
24173;SDS011;12324;48.146;11.502;2022-10-10T02:26:15;20.10;;;13.05;;
24173;SDS011;12324;48.146;11.502;2022-10-10T02:28:56;24.48;;;10.80;;
24173;SDS011;12324;48.146;11.502;2022-10-10T02:31:40;20.88;;;12.05;;
24173;SDS011;12324;48.146;11.502;2022-10-10T02:36:36;21.17;;;11.32;;
24173;SDS011;12324;48.146;11.502;2022-10-10T02:39:04;23.73;;;14.13;;
24173;SDS011;12324;48.146;11.502;2022-10-10T02:41:32;21.20;;;12.68;;
24173;SDS011;12324;48.146;11.502;2022-10-10T02:43:59;21.73;;;12.50;;
24173;SDS011;12324;48.146;11.502;2022-10-10T02:46:26;23.02;;;13.80;;
24173;SDS011;12324;48.146;11.502;2022-10-10T02:48:54;23.73;;;13.13;;
24173;SDS011;12324;48.146;11.502;2022-10-10T02:51:21;21.55;;;12.93;;
24173;SDS011;12324;48.146;11.502;2022-10-10T02:53:48;21.48;;;12.13;;
24173;SDS011;12324;48.146;11.502;2022-10-10T02:56:15;21.77;;;12.10;;
24173;SDS011;12324;48.146;11.502;2022-10-10T02:58:42;21.60;;;11.77;;
24173;SDS011;12324;48.146;11.502;2022-10-10T03:01:09;24.13;;;11.02;;
24173;SDS011;12324;48.146;11.502;2022-10-10T03:03:36;21.38;;;12.25;;
24173;SDS011;12324;48.146;11.502;2022-10-10T03:06:03;21.83;;;12.57;;
24173;SDS011;12324;48.146;11.502;2022-10-10T03:08:30;21.48;;;11.60;;
24173;SDS011;12324;48.146;11.502;2022-10-10T03:11:00;18.38;;;10.93;;
24173;SDS011;12324;48.146;11.502;2022-10-10T03:13:28;19.65;;;11.20;;
24173;SDS011;12324;48.146;11.502;2022-10-10T03:15:55;20.20;;;11.15;;
24173;SDS011;12324;48.146;11.502;2022-10-10T03:18:22;21.55;;;11.68;;
24173;SDS011;12324;48.146;11.502;2022-10-10T03:20:50;19.75;;;10.50;;
24173;SDS011;12324;48.146;11.502;2022-10-10T03:23:17;20.23;;;10.98;;
24173;SDS011;12324;48.146;11.502;2022-10-10T03:25:44;19.73;;;10.38;;
24173;SDS011;12324;48.146;11.502;2022-10-10T03:28:12;20.10;;;11.23;;
24173;SDS011;12324;48.146;11.502;2022-10-10T03:30:39;20.30;;;10.38;;
24173;SDS011;12324;48.146;11.502;2022-10-10T03:33:06;19.50;;;9.90;;
24173;SDS011;12324;48.146;11.502;2022-10-10T03:35:34;18.50;;;10.20;;
24173;SDS011;12324;48.146;11.502;2022-10-10T03:38:01;17.45;;;9.05;;
24173;SDS011;12324;48.146;11.502;2022-10-10T03:40:28;17.80;;;10.18;;
24173;SDS011;12324;48.146;11.502;2022-10-10T03:42:55;18.08;;;9.63;;
24173;SDS011;12324;48.146;11.502;2022-10-10T03:45:23;18.80;;;9.50;;
24173;SDS011;12324;48.146;11.502;2022-10-10T03:47:50;18.95;;;10.40;;
24173;SDS011;12324;48.146;11.502;2022-10-10T03:50:17;18.33;;;9.70;;
24173;SDS011;12324;48.146;11.502;2022-10-10T03:52:44;15.88;;;8.60;;
24173;SDS011;12324;48.146;11.502;2022-10-10T03:55:11;19.73;;;9.85;;
24173;SDS011;12324;48.146;11.502;2022-10-10T03:57:38;17.25;;;8.77;;
24173;SDS011;12324;48.146;11.502;2022-10-10T04:00:05;18.25;;;10.00;;
24173;SDS011;12324;48.146;11.502;2022-10-10T04:02:32;20.10;;;9.40;;
24173;SDS011;12324;48.146;11.502;2022-10-10T04:04:59;17.48;;;9.25;;
24173;SDS011;12324;48.146;11.502;2022-10-10T04:07:26;15.57;;;8.27;;
24173;SDS011;12324;48.146;11.502;2022-10-10T04:09:53;18.85;;;8.98;;
24173;SDS011;12324;48.146;11.502;2022-10-10T04:12:20;19.75;;;9.98;;
24173;SDS011;12324;48.146;11.502;2022-10-10T04:14:47;19.73;;;9.02;;
24173;SDS011;12324;48.146;11.502;2022-10-10T04:17:14;15.10;;;8.35;;
24173;SDS011;12324;48.146;11.502;2022-10-10T04:19:41;17.10;;;8.55;;
24173;SDS011;12324;48.146;11.502;2022-10-10T04:22:08;19.85;;;8.40;;
24173;SDS011;12324;48.146;11.502;2022-10-10T04:24:36;18.38;;;9.43;;
24173;SDS011;12324;48.146;11.502;2022-10-10T04:27:03;17.02;;;8.98;;
24173;SDS011;12324;48.146;11.502;2022-10-10T04:29:30;15.52;;;8.48;;
24173;SDS011;12324;48.146;11.502;2022-10-10T04:31:57;26.08;;;10.00;;
24173;SDS011;12324;48.146;11.502;2022-10-10T04:34:24;17.58;;;8.70;;
24173;SDS011;12324;48.146;11.502;2022-10-10T04:36:51;17.88;;;9.05;;
24173;SDS011;12324;48.146;11.502;2022-10-10T04:39:18;18.75;;;9.07;;
24173;SDS011;12324;48.146;11.502;2022-10-10T04:41:46;20.30;;;9.23;;
24173;SDS011;12324;48.146;11.502;2022-10-10T04:44:15;21.70;;;10.07;;
24173;SDS011;12324;48.146;11.502;2022-10-10T04:46:42;17.58;;;9.18;;
24173;SDS011;12324;48.146;11.502;2022-10-10T04:49:09;16.65;;;9.25;;
24173;SDS011;12324;48.146;11.502;2022-10-10T04:51:36;16.67;;;9.05;;
24173;SDS011;12324;48.146;11.502;2022-10-10T04:54:03;23.85;;;10.00;;
24173;SDS011;12324;48.146;11.502;2022-10-10T04:56:30;17.08;;;10.00;;
24173;SDS011;12324;48.146;11.502;2022-10-10T04:58:58;20.73;;;10.20;;
24173;SDS011;12324;48.146;11.502;2022-10-10T05:01:25;22.05;;;11.43;;
24173;SDS011;12324;48.146;11.502;2022-10-10T05:03:52;19.33;;;10.52;;
24173;SDS011;12324;48.146;11.502;2022-10-10T05:06:19;18.95;;;10.27;;
24173;SDS011;12324;48.146;11.502;2022-10-10T05:08:46;17.88;;;9.23;;
24173;SDS011;12324;48.146;11.502;2022-10-10T05:11:13;16.98;;;8.90;;
24173;SDS011;12324;48.146;11.502;2022-10-10T05:13:40;20.50;;;9.18;;
24173;SDS011;12324;48.146;11.502;2022-10-10T05:16:07;17.73;;;9.18;;
24173;SDS011;12324;48.146;11.502;2022-10-10T05:18:34;15.82;;;8.52;;
24173;SDS011;12324;48.146;11.502;2022-10-10T05:21:04;19.75;;;9.30;;
24173;SDS011;12324;48.146;11.502;2022-10-10T05:23:32;16.85;;;8.68;;
24173;SDS011;12324;48.146;11.502;2022-10-10T05:25:59;19.05;;;8.45;;
24173;SDS011;12324;48.146;11.502;2022-10-10T05:28:26;17.50;;;8.90;;
24173;SDS011;12324;48.146;11.502;2022-10-10T05:30:54;16.13;;;7.78;;
24173;SDS011;12324;48.146;11.502;2022-10-10T05:33:21;16.10;;;8.18;;
24173;SDS011;12324;48.146;11.502;2022-10-10T05:35:48;21.85;;;8.18;;
24173;SDS011;12324;48.146;11.502;2022-10-10T05:38:15;16.75;;;7.28;;
24173;SDS011;12324;48.146;11.502;2022-10-10T05:40:42;13.95;;;7.45;;
24173;SDS011;12324;48.146;11.502;2022-10-10T05:43:09;17.65;;;7.55;;
24173;SDS011;12324;48.146;11.502;2022-10-10T05:45:36;14.95;;;6.88;;
24173;SDS011;12324;48.146;11.502;2022-10-10T05:48:03;15.88;;;7.68;;
24173;SDS011;12324;48.146;11.502;2022-10-10T05:50:32;15.80;;;8.15;;
24173;SDS011;12324;48.146;11.502;2022-10-10T05:53:00;17.40;;;7.57;;
24173;SDS011;12324;48.146;11.502;2022-10-10T05:55:27;17.05;;;9.20;;
24173;SDS011;12324;48.146;11.502;2022-10-10T05:57:54;14.73;;;6.95;;
24173;SDS011;12324;48.146;11.502;2022-10-10T06:00:21;13.80;;;6.80;;
24173;SDS011;12324;48.146;11.502;2022-10-10T06:02:48;20.20;;;8.57;;
24173;SDS011;12324;48.146;11.502;2022-10-10T06:05:16;15.60;;;8.02;;
24173;SDS011;12324;48.146;11.502;2022-10-10T06:07:43;15.32;;;7.75;;
24173;SDS011;12324;48.146;11.502;2022-10-10T06:10:33;13.48;;;6.75;;
24173;SDS011;12324;48.146;11.502;2022-10-10T06:13:00;16.23;;;7.63;;
24173;SDS011;12324;48.146;11.502;2022-10-10T06:15:27;14.13;;;6.50;;
24173;SDS011;12324;48.146;11.502;2022-10-10T06:17:54;17.17;;;8.18;;
24173;SDS011;12324;48.146;11.502;2022-10-10T06:20:21;15.88;;;8.00;;
24173;SDS011;12324;48.146;11.502;2022-10-10T06:22:48;15.43;;;7.10;;
24173;SDS011;12324;48.146;11.502;2022-10-10T06:25:15;16.70;;;7.82;;
24173;SDS011;12324;48.146;11.502;2022-10-10T06:28:03;14.18;;;7.70;;
24173;SDS011;12324;48.146;11.502;2022-10-10T06:30:31;16.77;;;7.57;;
24173;SDS011;12324;48.146;11.502;2022-10-10T06:32:59;15.20;;;7.68;;
24173;SDS011;12324;48.146;11.502;2022-10-10T06:35:27;15.30;;;7.28;;
24173;SDS011;12324;48.146;11.502;2022-10-10T06:37:54;15.70;;;8.75;;
24173;SDS011;12324;48.146;11.502;2022-10-10T06:40:21;14.73;;;6.82;;
24173;SDS011;12324;48.146;11.502;2022-10-10T06:42:48;15.07;;;7.88;;
24173;SDS011;12324;48.146;11.502;2022-10-10T06:45:16;14.95;;;7.78;;
24173;SDS011;12324;48.146;11.502;2022-10-10T06:47:43;12.82;;;6.43;;
24173;SDS011;12324;48.146;11.502;2022-10-10T06:50:10;13.57;;;6.15;;
24173;SDS011;12324;48.146;11.502;2022-10-10T06:52:37;13.75;;;6.70;;
24173;SDS011;12324;48.146;11.502;2022-10-10T06:55:06;11.20;;;5.25;;
24173;SDS011;12324;48.146;11.502;2022-10-10T06:57:33;11.98;;;5.30;;
24173;SDS011;12324;48.146;11.502;2022-10-10T07:00:00;9.60;;;4.75;;
24173;SDS011;12324;48.146;11.502;2022-10-10T07:02:27;11.02;;;5.55;;
24173;SDS011;12324;48.146;11.502;2022-10-10T07:04:54;12.98;;;4.85;;
24173;SDS011;12324;48.146;11.502;2022-10-10T07:07:21;12.77;;;5.20;;
24173;SDS011;12324;48.146;11.502;2022-10-10T07:09:48;11.25;;;5.38;;
24173;SDS011;12324;48.146;11.502;2022-10-10T07:12:15;9.48;;;4.88;;
24173;SDS011;12324;48.146;11.502;2022-10-10T07:14:42;7.53;;;3.78;;
24173;SDS011;12324;48.146;11.502;2022-10-10T07:17:09;10.32;;;3.88;;
24173;SDS011;12324;48.146;11.502;2022-10-10T07:19:36;7.28;;;3.92;;
24173;SDS011;12324;48.146;11.502;2022-10-10T07:22:03;7.38;;;3.83;;
24173;SDS011;12324;48.146;11.502;2022-10-10T07:24:30;6.30;;;3.25;;
24173;SDS011;12324;48.146;11.502;2022-10-10T07:26:57;6.95;;;3.85;;
24173;SDS011;12324;48.146;11.502;2022-10-10T07:29:33;9.10;;;3.40;;
24173;SDS011;12324;48.146;11.502;2022-10-10T07:32:00;5.53;;;2.97;;
24173;SDS011;12324;48.146;11.502;2022-10-10T07:34:27;6.63;;;3.28;;
24173;SDS011;12324;48.146;11.502;2022-10-10T07:36:54;8.95;;;3.17;;
24173;SDS011;12324;48.146;11.502;2022-10-10T07:39:22;8.18;;;2.80;;
24173;SDS011;12324;48.146;11.502;2022-10-10T07:41:50;4.07;;;2.35;;
24173;SDS011;12324;48.146;11.502;2022-10-10T07:44:17;7.22;;;3.38;;
24173;SDS011;12324;48.146;11.502;2022-10-10T07:46:45;8.07;;;3.60;;
24173;SDS011;12324;48.146;11.502;2022-10-10T07:49:12;5.82;;;2.97;;
24173;SDS011;12324;48.146;11.502;2022-10-10T07:51:39;7.18;;;2.72;;
24173;SDS011;12324;48.146;11.502;2022-10-10T07:54:06;8.20;;;3.08;;
24173;SDS011;12324;48.146;11.502;2022-10-10T07:56:35;6.63;;;3.20;;
24173;SDS011;12324;48.146;11.502;2022-10-10T07:59:02;12.10;;;3.90;;
24173;SDS011;12324;48.146;11.502;2022-10-10T08:01:29;8.75;;;3.13;;
24173;SDS011;12324;48.146;11.502;2022-10-10T08:03:56;6.45;;;3.35;;
24173;SDS011;12324;48.146;11.502;2022-10-10T08:06:23;4.10;;;2.70;;
24173;SDS011;12324;48.146;11.502;2022-10-10T08:08:50;10.82;;;2.78;;
24173;SDS011;12324;48.146;11.502;2022-10-10T08:11:18;2.78;;;2.30;;
24173;SDS011;12324;48.146;11.502;2022-10-10T08:13:46;5.55;;;2.33;;
24173;SDS011;12324;48.146;11.502;2022-10-10T08:16:13;7.03;;;2.72;;
24173;SDS011;12324;48.146;11.502;2022-10-10T08:18:41;5.22;;;2.30;;
24173;SDS011;12324;48.146;11.502;2022-10-10T08:21:09;4.63;;;2.60;;
24173;SDS011;12324;48.146;11.502;2022-10-10T08:23:36;5.45;;;2.70;;
24173;SDS011;12324;48.146;11.502;2022-10-10T08:26:04;3.88;;;1.88;;
24173;SDS011;12324;48.146;11.502;2022-10-10T08:28:33;8.60;;;2.47;;
24173;SDS011;12324;48.146;11.502;2022-10-10T08:31:04;5.00;;;2.05;;
24173;SDS011;12324;48.146;11.502;2022-10-10T08:33:31;9.77;;;2.47;;
24173;SDS011;12324;48.146;11.502;2022-10-10T08:36:02;6.18;;;2.28;;
24173;SDS011;12324;48.146;11.502;2022-10-10T08:38:29;5.05;;;2.45;;
24173;SDS011;12324;48.146;11.502;2022-10-10T08:40:56;4.90;;;2.30;;
24173;SDS011;12324;48.146;11.502;2022-10-10T08:43:30;8.02;;;3.08;;
24173;SDS011;12324;48.146;11.502;2022-10-10T08:45:59;6.83;;;2.43;;
24173;SDS011;12324;48.146;11.502;2022-10-10T08:48:30;3.00;;;2.00;;
24173;SDS011;12324;48.146;11.502;2022-10-10T08:50:58;5.53;;;2.20;;
24173;SDS011;12324;48.146;11.502;2022-10-10T08:53:46;7.40;;;2.60;;
24173;SDS011;12324;48.146;11.502;2022-10-10T08:56:27;3.85;;;2.20;;
24173;SDS011;12324;48.146;11.502;2022-10-10T08:58:57;4.72;;;2.38;;
24173;SDS011;12324;48.146;11.502;2022-10-10T09:01:26;4.47;;;2.47;;
24173;SDS011;12324;48.146;11.502;2022-10-10T09:03:58;5.22;;;2.00;;
24173;SDS011;12324;48.146;11.502;2022-10-10T09:06:39;3.60;;;2.00;;
24173;SDS011;12324;48.146;11.502;2022-10-10T09:09:15;8.13;;;2.10;;
24173;SDS011;12324;48.146;11.502;2022-10-10T09:14:15;5.93;;;1.85;;
24173;SDS011;12324;48.146;11.502;2022-10-10T09:16:55;5.20;;;2.22;;
24173;SDS011;12324;48.146;11.502;2022-10-10T09:19:36;4.55;;;1.75;;
24173;SDS011;12324;48.146;11.502;2022-10-10T09:22:08;5.45;;;2.40;;
24173;SDS011;12324;48.146;11.502;2022-10-10T09:24:39;6.10;;;2.30;;
24173;SDS011;12324;48.146;11.502;2022-10-10T09:27:11;5.53;;;1.50;;
24173;SDS011;12324;48.146;11.502;2022-10-10T09:37:23;6.40;;;2.45;;
24173;SDS011;12324;48.146;11.502;2022-10-10T09:40:14;5.97;;;2.25;;
24173;SDS011;12324;48.146;11.502;2022-10-10T09:42:43;5.85;;;2.15;;
24173;SDS011;12324;48.146;11.502;2022-10-10T09:45:22;3.88;;;2.13;;
24173;SDS011;12324;48.146;11.502;2022-10-10T09:47:51;3.05;;;1.60;;
24173;SDS011;12324;48.146;11.502;2022-10-10T09:50:19;5.22;;;2.22;;
24173;SDS011;12324;48.146;11.502;2022-10-10T09:52:46;4.18;;;1.85;;
24173;SDS011;12324;48.146;11.502;2022-10-10T09:55:17;7.32;;;2.10;;
24173;SDS011;12324;48.146;11.502;2022-10-10T09:57:46;7.95;;;1.92;;
24173;SDS011;12324;48.146;11.502;2022-10-10T10:03:01;4.57;;;2.30;;
24173;SDS011;12324;48.146;11.502;2022-10-10T10:05:28;6.10;;;2.60;;
24173;SDS011;12324;48.146;11.502;2022-10-10T10:07:55;4.28;;;1.95;;
24173;SDS011;12324;48.146;11.502;2022-10-10T10:10:24;16.77;;;6.00;;
24173;SDS011;12324;48.146;11.502;2022-10-10T10:12:52;4.53;;;1.92;;
24173;SDS011;12324;48.146;11.502;2022-10-10T10:15:24;4.43;;;1.98;;
24173;SDS011;12324;48.146;11.502;2022-10-10T10:20:39;5.38;;;2.08;;
24173;SDS011;12324;48.146;11.502;2022-10-10T10:23:22;13.90;;;3.67;;
24173;SDS011;12324;48.146;11.502;2022-10-10T10:25:55;2.37;;;1.43;;
24173;SDS011;12324;48.146;11.502;2022-10-10T10:30:54;7.63;;;2.35;;
24173;SDS011;12324;48.146;11.502;2022-10-10T10:38:54;3.33;;;1.95;;
24173;SDS011;12324;48.146;11.502;2022-10-10T10:46:30;5.57;;;2.35;;
24173;SDS011;12324;48.146;11.502;2022-10-10T10:49:00;4.40;;;2.53;;
24173;SDS011;12324;48.146;11.502;2022-10-10T10:54:14;3.75;;;1.85;;
24173;SDS011;12324;48.146;11.502;2022-10-10T10:57:31;4.70;;;2.10;;
24173;SDS011;12324;48.146;11.502;2022-10-10T10:59:59;5.10;;;1.90;;
24173;SDS011;12324;48.146;11.502;2022-10-10T11:05:32;4.63;;;2.05;;
24173;SDS011;12324;48.146;11.502;2022-10-10T11:15:40;6.35;;;2.75;;
24173;SDS011;12324;48.146;11.502;2022-10-10T11:18:34;2.78;;;1.80;;
24173;SDS011;12324;48.146;11.502;2022-10-10T11:21:09;3.97;;;1.73;;
24173;SDS011;12324;48.146;11.502;2022-10-10T11:23:43;6.93;;;2.08;;
24173;SDS011;12324;48.146;11.502;2022-10-10T11:26:17;2.80;;;1.73;;
24173;SDS011;12324;48.146;11.502;2022-10-10T11:28:47;2.60;;;1.88;;
24173;SDS011;12324;48.146;11.502;2022-10-10T11:31:21;7.07;;;2.33;;
24173;SDS011;12324;48.146;11.502;2022-10-10T11:33:56;4.30;;;2.10;;
24173;SDS011;12324;48.146;11.502;2022-10-10T11:36:27;6.18;;;1.52;;
24173;SDS011;12324;48.146;11.502;2022-10-10T11:39:08;4.97;;;2.13;;
24173;SDS011;12324;48.146;11.502;2022-10-10T11:41:45;4.50;;;1.98;;
24173;SDS011;12324;48.146;11.502;2022-10-10T11:44:18;3.92;;;1.88;;
24173;SDS011;12324;48.146;11.502;2022-10-10T11:46:55;6.38;;;1.92;;
24173;SDS011;12324;48.146;11.502;2022-10-10T11:49:43;3.90;;;1.75;;
24173;SDS011;12324;48.146;11.502;2022-10-10T11:55:10;6.30;;;2.10;;
24173;SDS011;12324;48.146;11.502;2022-10-10T11:57:43;7.65;;;2.65;;
24173;SDS011;12324;48.146;11.502;2022-10-10T12:00:12;5.55;;;2.28;;
24173;SDS011;12324;48.146;11.502;2022-10-10T12:02:41;12.05;;;3.65;;
24173;SDS011;12324;48.146;11.502;2022-10-10T12:05:19;7.05;;;2.35;;
24173;SDS011;12324;48.146;11.502;2022-10-10T12:07:58;6.15;;;3.08;;
24173;SDS011;12324;48.146;11.502;2022-10-10T12:12:59;5.95;;;2.72;;
24173;SDS011;12324;48.146;11.502;2022-10-10T12:18:03;6.22;;;2.10;;
24173;SDS011;12324;48.146;11.502;2022-10-10T12:20:34;3.53;;;2.10;;
24173;SDS011;12324;48.146;11.502;2022-10-10T12:23:07;4.78;;;1.73;;
24173;SDS011;12324;48.146;11.502;2022-10-10T12:25:36;4.97;;;2.53;;
24173;SDS011;12324;48.146;11.502;2022-10-10T12:35:54;8.75;;;4.25;;
24173;SDS011;12324;48.146;11.502;2022-10-10T12:41:10;5.05;;;1.70;;
24173;SDS011;12324;48.146;11.502;2022-10-10T12:43:39;2.28;;;1.45;;
24173;SDS011;12324;48.146;11.502;2022-10-10T12:46:13;7.05;;;1.85;;
24173;SDS011;12324;48.146;11.502;2022-10-10T12:48:42;8.77;;;2.13;;
24173;SDS011;12324;48.146;11.502;2022-10-10T12:51:17;3.05;;;2.10;;
24173;SDS011;12324;48.146;11.502;2022-10-10T12:53:50;2.55;;;1.70;;
24173;SDS011;12324;48.146;11.502;2022-10-10T12:56:30;4.20;;;2.00;;
24173;SDS011;12324;48.146;11.502;2022-10-10T12:58:57;6.13;;;1.95;;
24173;SDS011;12324;48.146;11.502;2022-10-10T13:01:27;5.95;;;2.20;;
24173;SDS011;12324;48.146;11.502;2022-10-10T13:03:55;4.57;;;2.10;;
24173;SDS011;12324;48.146;11.502;2022-10-10T13:06:32;3.53;;;2.05;;
24173;SDS011;12324;48.146;11.502;2022-10-10T13:09:00;4.72;;;2.08;;
24173;SDS011;12324;48.146;11.502;2022-10-10T13:11:28;4.75;;;1.70;;
24173;SDS011;12324;48.146;11.502;2022-10-10T13:13:56;5.50;;;2.00;;
24173;SDS011;12324;48.146;11.502;2022-10-10T13:16:24;5.65;;;1.83;;
24173;SDS011;12324;48.146;11.502;2022-10-10T13:18:59;7.68;;;2.20;;
24173;SDS011;12324;48.146;11.502;2022-10-10T13:21:27;7.78;;;1.98;;
24173;SDS011;12324;48.146;11.502;2022-10-10T13:23:57;6.10;;;1.98;;
24173;SDS011;12324;48.146;11.502;2022-10-10T13:26:33;10.55;;;2.28;;
24173;SDS011;12324;48.146;11.502;2022-10-10T13:29:22;7.70;;;2.40;;
24173;SDS011;12324;48.146;11.502;2022-10-10T13:31:50;6.32;;;2.03;;
24173;SDS011;12324;48.146;11.502;2022-10-10T13:34:21;4.28;;;2.03;;
24173;SDS011;12324;48.146;11.502;2022-10-10T13:36:54;4.57;;;2.45;;
24173;SDS011;12324;48.146;11.502;2022-10-10T13:39:21;5.45;;;2.08;;
24173;SDS011;12324;48.146;11.502;2022-10-10T13:41:48;6.55;;;2.13;;
24173;SDS011;12324;48.146;11.502;2022-10-10T13:44:24;5.93;;;2.45;;
24173;SDS011;12324;48.146;11.502;2022-10-10T13:46:51;4.18;;;2.00;;
24173;SDS011;12324;48.146;11.502;2022-10-10T13:49:20;5.40;;;2.30;;
24173;SDS011;12324;48.146;11.502;2022-10-10T13:51:48;4.18;;;1.88;;
24173;SDS011;12324;48.146;11.502;2022-10-10T13:54:41;3.20;;;1.60;;
24173;SDS011;12324;48.146;11.502;2022-10-10T13:59:58;6.00;;;1.85;;
24173;SDS011;12324;48.146;11.502;2022-10-10T14:02:33;2.55;;;1.35;;
24173;SDS011;12324;48.146;11.502;2022-10-10T14:05:11;4.32;;;2.38;;
24173;SDS011;12324;48.146;11.502;2022-10-10T14:07:40;6.80;;;1.77;;
24173;SDS011;12324;48.146;11.502;2022-10-10T14:10:13;7.72;;;1.98;;
24173;SDS011;12324;48.146;11.502;2022-10-10T14:12:49;5.90;;;2.78;;
24173;SDS011;12324;48.146;11.502;2022-10-10T14:15:30;10.35;;;2.05;;
24173;SDS011;12324;48.146;11.502;2022-10-10T14:18:00;7.05;;;2.45;;
24173;SDS011;12324;48.146;11.502;2022-10-10T14:20:28;2.33;;;1.67;;
24173;SDS011;12324;48.146;11.502;2022-10-10T14:22:55;2.85;;;1.70;;
24173;SDS011;12324;48.146;11.502;2022-10-10T14:25:22;3.65;;;1.98;;
24173;SDS011;12324;48.146;11.502;2022-10-10T14:27:49;6.13;;;2.17;;
24173;SDS011;12324;48.146;11.502;2022-10-10T14:30:16;4.45;;;2.30;;
24173;SDS011;12324;48.146;11.502;2022-10-10T14:32:44;10.52;;;3.28;;
24173;SDS011;12324;48.146;11.502;2022-10-10T14:35:11;6.30;;;2.55;;
24173;SDS011;12324;48.146;11.502;2022-10-10T14:37:38;3.45;;;1.98;;
24173;SDS011;12324;48.146;11.502;2022-10-10T14:40:17;5.32;;;1.95;;
24173;SDS011;12324;48.146;11.502;2022-10-10T14:42:45;4.90;;;1.70;;
24173;SDS011;12324;48.146;11.502;2022-10-10T14:45:13;5.05;;;2.40;;
24173;SDS011;12324;48.146;11.502;2022-10-10T14:47:40;2.50;;;1.52;;
24173;SDS011;12324;48.146;11.502;2022-10-10T14:50:18;27.73;;;14.55;;
24173;SDS011;12324;48.146;11.502;2022-10-10T14:52:46;4.63;;;2.40;;
24173;SDS011;12324;48.146;11.502;2022-10-10T14:55:13;4.15;;;2.15;;
24173;SDS011;12324;48.146;11.502;2022-10-10T14:57:40;5.70;;;2.33;;
24173;SDS011;12324;48.146;11.502;2022-10-10T15:00:10;6.95;;;1.70;;
24173;SDS011;12324;48.146;11.502;2022-10-10T15:02:38;3.42;;;1.70;;
24173;SDS011;12324;48.146;11.502;2022-10-10T15:05:10;7.10;;;2.28;;
24173;SDS011;12324;48.146;11.502;2022-10-10T15:07:38;4.93;;;1.98;;
24173;SDS011;12324;48.146;11.502;2022-10-10T15:10:05;2.88;;;1.75;;
24173;SDS011;12324;48.146;11.502;2022-10-10T15:12:52;7.90;;;2.17;;
24173;SDS011;12324;48.146;11.502;2022-10-10T15:15:19;4.32;;;2.13;;
24173;SDS011;12324;48.146;11.502;2022-10-10T15:17:46;6.65;;;2.42;;
24173;SDS011;12324;48.146;11.502;2022-10-10T15:20:14;5.50;;;2.75;;
24173;SDS011;12324;48.146;11.502;2022-10-10T15:22:41;8.45;;;2.30;;
24173;SDS011;12324;48.146;11.502;2022-10-10T15:25:10;4.57;;;1.70;;
24173;SDS011;12324;48.146;11.502;2022-10-10T15:27:37;9.00;;;2.90;;
24173;SDS011;12324;48.146;11.502;2022-10-10T15:30:05;7.13;;;2.28;;
24173;SDS011;12324;48.146;11.502;2022-10-10T15:32:32;6.75;;;1.83;;
24173;SDS011;12324;48.146;11.502;2022-10-10T15:35:02;6.75;;;2.20;;
24173;SDS011;12324;48.146;11.502;2022-10-10T15:37:29;22.30;;;9.68;;
24173;SDS011;12324;48.146;11.502;2022-10-10T15:39:56;59.78;;;33.40;;
24173;SDS011;12324;48.146;11.502;2022-10-10T15:42:23;9.63;;;4.03;;
24173;SDS011;12324;48.146;11.502;2022-10-10T15:44:50;4.93;;;1.90;;
24173;SDS011;12324;48.146;11.502;2022-10-10T15:47:18;17.98;;;6.32;;
24173;SDS011;12324;48.146;11.502;2022-10-10T15:49:45;22.35;;;9.30;;
24173;SDS011;12324;48.146;11.502;2022-10-10T15:52:12;16.65;;;6.30;;
24173;SDS011;12324;48.146;11.502;2022-10-10T15:54:39;12.77;;;5.40;;
24173;SDS011;12324;48.146;11.502;2022-10-10T15:57:07;19.20;;;7.90;;
24173;SDS011;12324;48.146;11.502;2022-10-10T15:59:34;14.15;;;4.07;;
24173;SDS011;12324;48.146;11.502;2022-10-10T16:02:05;13.05;;;4.82;;
24173;SDS011;12324;48.146;11.502;2022-10-10T16:04:32;15.90;;;5.25;;